Time;durP1;ratioP1;P1;durP2;ratioP2;P2;SDS_P1;SDS_P2;PMS_P1;PMS_P2;Temp;Humidity;BMP_temperature;BMP_pressure;BME280_temperature;BME280_humidity;BME280_pressure;Samples;Min_cycle;Max_cycle;Signal;HPM_P1;HPM_P2
2021/12/02 00:01:22;;;;;;;6.90;3.00;;;;;;;;;;5029130;28;20189;-53
2021/12/02 00:03:49;;;;;;;4.13;2.40;;;;;;;;;;5031699;28;20213;-53
2021/12/02 00:06:16;;;;;;;4.37;2.37;;;;;;;;;;5030487;28;20641;-54
2021/12/02 00:08:43;;;;;;;10.37;2.63;;;;;;;;;;5044813;28;20193;-53
2021/12/02 00:11:09;;;;;;;5.83;2.10;;;;;;;;;;5012610;28;20686;-54
2021/12/02 00:13:53;;;;;;;6.33;2.33;;;;;;;;;;5012840;28;20178;-54
2021/12/02 00:16:51;;;;;;;5.03;2.43;;;;;;;;;;5028693;28;20633;-53
2021/12/02 00:22:04;;;;;;;5.40;2.60;;;;;;;;;;5030486;28;20180;-53
2021/12/02 00:24:33;;;;;;;5.60;2.33;;;;;;;;;;5013442;28;20194;-54
2021/12/02 00:27:00;;;;;;;8.20;2.83;;;;;;;;;;5019000;28;20667;-53
2021/12/02 00:29:27;;;;;;;5.80;2.37;;;;;;;;;;5012780;28;20184;-53
2021/12/02 00:31:54;;;;;;;4.20;1.73;;;;;;;;;;5029172;28;20603;-53
2021/12/02 00:34:22;;;;;;;7.20;2.33;;;;;;;;;;5011752;28;20202;-54
2021/12/02 00:36:49;;;;;;;4.67;2.20;;;;;;;;;;5011368;28;20180;-53
2021/12/02 00:39:16;;;;;;;3.53;2.30;;;;;;;;;;5012484;28;20208;-53
2021/12/02 00:41:43;;;;;;;6.33;2.50;;;;;;;;;;4994852;28;20232;-53
2021/12/02 00:44:12;;;;;;;11.10;2.60;;;;;;;;;;5011883;28;20193;-53
2021/12/02 00:46:39;;;;;;;4.57;2.00;;;;;;;;;;5010021;28;20190;-53
2021/12/02 00:49:10;;;;;;;8.53;2.53;;;;;;;;;;5011897;28;20617;-54
2021/12/02 00:51:37;;;;;;;6.00;2.57;;;;;;;;;;5028165;28;20272;-54
2021/12/02 00:54:05;;;;;;;6.70;2.87;;;;;;;;;;4994681;28;20667;-54
2021/12/02 00:56:31;;;;;;;11.00;3.23;;;;;;;;;;5029117;28;20201;-53
2021/12/02 00:58:58;;;;;;;3.73;2.50;;;;;;;;;;5011408;28;20190;-53
2021/12/02 01:01:26;;;;;;;6.73;2.00;;;;;;;;;;5011261;28;20181;-54
2021/12/02 01:03:57;;;;;;;5.57;2.90;;;;;;;;;;5011755;28;20173;-53
2021/12/02 01:06:24;;;;;;;4.80;2.60;;;;;;;;;;5010593;28;20204;-54
2021/12/02 01:08:50;;;;;;;5.53;2.40;;;;;;;;;;5027335;28;20185;-52
2021/12/02 01:11:18;;;;;;;7.77;2.37;;;;;;;;;;5028140;28;20233;-54
2021/12/02 01:13:44;;;;;;;4.37;2.00;;;;;;;;;;5029279;28;20185;-54
2021/12/02 01:16:11;;;;;;;4.20;2.20;;;;;;;;;;5009971;28;20645;-55
2021/12/02 01:18:37;;;;;;;5.47;2.63;;;;;;;;;;5011472;28;20272;-55
2021/12/02 01:21:04;;;;;;;3.83;2.10;;;;;;;;;;5029229;28;20182;-53
2021/12/02 01:23:32;;;;;;;4.23;2.37;;;;;;;;;;5010434;28;20200;-54
2021/12/02 01:26:04;;;;;;;3.93;2.37;;;;;;;;;;5028864;28;20196;-53
2021/12/02 01:28:30;;;;;;;6.33;2.40;;;;;;;;;;5011018;28;20637;-53
2021/12/02 01:30:57;;;;;;;5.50;2.43;;;;;;;;;;5009614;28;20546;-53
2021/12/02 01:33:26;;;;;;;5.73;2.60;;;;;;;;;;5020504;28;20202;-53
2021/12/02 01:35:54;;;;;;;4.47;2.37;;;;;;;;;;5011296;28;20174;-53
2021/12/02 01:38:22;;;;;;;6.97;2.63;;;;;;;;;;5021097;28;20600;-54
2021/12/02 01:40:49;;;;;;;5.33;2.37;;;;;;;;;;4998605;28;20197;-53
2021/12/02 01:43:16;;;;;;;5.07;2.20;;;;;;;;;;5027744;28;20666;-54
2021/12/02 01:45:43;;;;;;;8.40;2.50;;;;;;;;;;5010253;28;20181;-54
2021/12/02 01:48:11;;;;;;;5.50;2.27;;;;;;;;;;5010058;28;20615;-54
2021/12/02 01:50:39;;;;;;;10.40;2.33;;;;;;;;;;5003595;28;20230;-54
2021/12/02 01:53:06;;;;;;;4.73;2.03;;;;;;;;;;4990621;28;20218;-54
2021/12/02 01:55:35;;;;;;;7.50;2.40;;;;;;;;;;4991102;28;20174;-54
2021/12/02 01:58:02;;;;;;;3.60;2.20;;;;;;;;;;5008809;28;20181;-54
2021/12/02 02:00:46;;;;;;;6.10;2.63;;;;;;;;;;5009598;28;20210;-54
2021/12/02 02:03:13;;;;;;;5.63;2.17;;;;;;;;;;4983321;28;20557;-54
2021/12/02 02:05:40;;;;;;;6.10;2.20;;;;;;;;;;5009043;28;20193;-53
2021/12/02 02:08:12;;;;;;;3.60;2.13;;;;;;;;;;4994371;28;20720;-54
2021/12/02 02:10:41;;;;;;;5.03;1.80;;;;;;;;;;5011573;28;20304;-54
2021/12/02 02:13:09;;;;;;;5.13;1.90;;;;;;;;;;5008819;28;20201;-54
2021/12/02 02:15:37;;;;;;;3.97;2.27;;;;;;;;;;5008047;28;20584;-54
2021/12/02 02:20:40;;;;;;;5.40;2.07;;;;;;;;;;5008974;28;20236;-54
2021/12/02 02:23:10;;;;;;;5.17;2.00;;;;;;;;;;4991023;28;20193;-54
2021/12/02 02:25:37;;;;;;;4.43;2.30;;;;;;;;;;4992106;28;20182;-54
2021/12/02 02:28:04;;;;;;;7.17;2.97;;;;;;;;;;4973770;28;20616;-53
2021/12/02 02:30:30;;;;;;;4.97;1.77;;;;;;;;;;4989158;28;20688;-53
2021/12/02 02:32:56;;;;;;;3.90;1.73;;;;;;;;;;4989228;28;20238;-54
2021/12/02 02:35:23;;;;;;;3.57;1.90;;;;;;;;;;4989354;28;20221;-54
2021/12/02 02:37:49;;;;;;;4.80;2.20;;;;;;;;;;5007358;28;20182;-54
2021/12/02 02:40:16;;;;;;;5.77;2.47;;;;;;;;;;5009267;28;20187;-54
2021/12/02 02:42:55;;;;;;;4.77;1.93;;;;;;;;;;4989996;28;20179;-54
2021/12/02 02:45:21;;;;;;;5.20;1.97;;;;;;;;;;4990249;28;20182;-54
2021/12/02 02:47:48;;;;;;;4.17;1.60;;;;;;;;;;5006811;28;20653;-55
2021/12/02 02:50:15;;;;;;;7.30;1.90;;;;;;;;;;5009442;28;20226;-54
2021/12/02 02:52:43;;;;;;;3.30;1.60;;;;;;;;;;4990462;28;20189;-55
2021/12/02 02:55:12;;;;;;;5.53;2.00;;;;;;;;;;4990472;28;20279;-55
2021/12/02 02:57:51;;;;;;;4.73;2.10;;;;;;;;;;5007437;28;20237;-54
2021/12/02 03:00:23;;;;;;;3.13;1.77;;;;;;;;;;4993829;28;20193;-54
2021/12/02 03:03:15;;;;;;;6.40;2.13;;;;;;;;;;4992539;28;20179;-55
2021/12/02 03:08:16;;;;;;;6.00;1.67;;;;;;;;;;5011798;28;20194;-54
2021/12/02 03:10:49;;;;;;;2.73;1.67;;;;;;;;;;4995181;28;20298;-54
2021/12/02 03:13:22;;;;;;;3.90;1.40;;;;;;;;;;5011089;28;20185;-54
2021/12/02 03:18:35;;;;;;;5.00;1.60;;;;;;;;;;5022641;28;20201;-54
2021/12/02 03:21:02;;;;;;;5.83;1.67;;;;;;;;;;5031736;28;20221;-53
2021/12/02 03:23:28;;;;;;;4.03;1.90;;;;;;;;;;4995457;28;20193;-54
2021/12/02 03:25:54;;;;;;;2.67;1.43;;;;;;;;;;4993698;28;20265;-54
2021/12/02 03:28:20;;;;;;;3.13;1.37;;;;;;;;;;4993701;28;20186;-55
2021/12/02 03:30:47;;;;;;;8.10;1.60;;;;;;;;;;4993700;28;20198;-55
2021/12/02 03:33:13;;;;;;;3.80;1.23;;;;;;;;;;5010524;28;20183;-54
2021/12/02 03:35:39;;;;;;;3.03;1.67;;;;;;;;;;5011266;28;20270;-55
2021/12/02 03:38:05;;;;;;;2.00;1.43;;;;;;;;;;5011169;28;20221;-54
2021/12/02 03:40:32;;;;;;;2.80;1.57;;;;;;;;;;4993206;28;20224;-55
2021/12/02 03:42:58;;;;;;;8.43;2.17;;;;;;;;;;4993321;28;20179;-56
2021/12/02 03:45:25;;;;;;;2.90;1.53;;;;;;;;;;4998246;28;20193;-55
2021/12/02 03:47:53;;;;;;;2.73;1.47;;;;;;;;;;4993347;28;20240;-55
2021/12/02 03:50:19;;;;;;;6.50;1.60;;;;;;;;;;5013139;28;20218;-55
2021/12/02 03:52:47;;;;;;;5.40;1.33;;;;;;;;;;5014278;28;20194;-55
2021/12/02 03:55:13;;;;;;;4.10;1.30;;;;;;;;;;5012910;28;20178;-55
2021/12/02 03:57:39;;;;;;;2.53;1.20;;;;;;;;;;5034935;28;20200;-55
2021/12/02 04:00:06;;;;;;;3.30;1.63;;;;;;;;;;5026956;28;20182;-55
2021/12/02 04:02:35;;;;;;;3.47;1.90;;;;;;;;;;5029225;28;20224;-55
2021/12/02 04:05:01;;;;;;;2.73;1.70;;;;;;;;;;5013054;28;20545;-55
2021/12/02 04:07:27;;;;;;;6.17;1.67;;;;;;;;;;5026508;28;20187;-56
2021/12/02 04:09:54;;;;;;;3.23;1.73;;;;;;;;;;5011668;28;20170;-55
2021/12/02 04:15:10;;;;;;;2.73;1.60;;;;;;;;;;5035457;28;20169;-55
2021/12/02 04:17:41;;;;;;;2.40;1.43;;;;;;;;;;4996372;28;20545;-55
2021/12/02 04:20:12;;;;;;;2.73;1.30;;;;;;;;;;5030586;28;20166;-55
2021/12/02 04:22:38;;;;;;;4.60;1.60;;;;;;;;;;5011669;28;20265;-55
2021/12/02 04:25:06;;;;;;;3.70;1.53;;;;;;;;;;5030528;28;20183;-55
2021/12/02 04:27:32;;;;;;;2.60;1.30;;;;;;;;;;5029516;28;20279;-54
2021/12/02 04:29:58;;;;;;;6.83;1.50;;;;;;;;;;5030106;28;20239;-55
2021/12/02 04:32:24;;;;;;;3.87;1.30;;;;;;;;;;5028746;28;20221;-54
2021/12/02 04:34:51;;;;;;;5.03;1.50;;;;;;;;;;5012796;28;20559;-55
2021/12/02 04:37:18;;;;;;;2.97;1.30;;;;;;;;;;5011841;28;20877;-54
2021/12/02 04:39:44;;;;;;;4.73;1.73;;;;;;;;;;5012354;28;20181;-54
2021/12/02 04:42:10;;;;;;;3.00;1.30;;;;;;;;;;5031814;28;20192;-54
2021/12/02 04:44:36;;;;;;;3.63;1.47;;;;;;;;;;5029615;28;20178;-53
2021/12/02 04:47:03;;;;;;;8.60;2.30;;;;;;;;;;5010749;28;20664;-53
2021/12/02 04:49:29;;;;;;;1.80;1.20;;;;;;;;;;5028935;28;20543;-53
2021/12/02 04:51:56;;;;;;;3.00;1.20;;;;;;;;;;5011388;28;20712;-53
2021/12/02 04:54:22;;;;;;;3.60;1.33;;;;;;;;;;5012211;28;20236;-53
2021/12/02 04:56:48;;;;;;;2.73;1.13;;;;;;;;;;5028841;28;20240;-53
2021/12/02 04:59:14;;;;;;;1.83;1.30;;;;;;;;;;5027631;28;20184;-53
2021/12/02 05:01:41;;;;;;;1.37;0.90;;;;;;;;;;5010925;28;20189;-54
2021/12/02 05:04:08;;;;;;;1.70;1.27;;;;;;;;;;5008820;28;20557;-52
2021/12/02 05:06:34;;;;;;;1.97;1.27;;;;;;;;;;5029102;28;20666;-54
2021/12/02 05:09:01;;;;;;;1.87;1.13;;;;;;;;;;5029132;28;20178;-54
2021/12/02 05:11:27;;;;;;;2.20;1.40;;;;;;;;;;5029357;28;20668;-54
2021/12/02 05:13:54;;;;;;;2.70;1.23;;;;;;;;;;5016034;28;20235;-53
2021/12/02 05:16:20;;;;;;;3.17;1.20;;;;;;;;;;5026224;28;20193;-53
2021/12/02 05:18:46;;;;;;;2.80;1.10;;;;;;;;;;5012716;28;20205;-53
2021/12/02 05:21:13;;;;;;;3.20;1.93;;;;;;;;;;5010737;28;20193;-53
2021/12/02 05:23:39;;;;;;;2.87;1.37;;;;;;;;;;5011615;28;20542;-53
2021/12/02 05:26:05;;;;;;;2.60;1.20;;;;;;;;;;5028084;28;20185;-53
2021/12/02 05:28:32;;;;;;;4.07;1.53;;;;;;;;;;5024920;28;20209;-52
2021/12/02 05:30:58;;;;;;;6.03;1.43;;;;;;;;;;5017706;28;20696;-53
2021/12/02 05:33:24;;;;;;;2.37;1.47;;;;;;;;;;5007167;28;20272;-52
2021/12/02 05:35:51;;;;;;;4.00;1.67;;;;;;;;;;5022096;28;20173;-53
2021/12/02 05:38:17;;;;;;;2.27;1.70;;;;;;;;;;5012579;28;20670;-53
2021/12/02 05:40:43;;;;;;;2.33;1.60;;;;;;;;;;5024726;28;20657;-52
2021/12/02 05:43:10;;;;;;;2.90;1.70;;;;;;;;;;5028949;28;20684;-53
2021/12/02 05:45:36;;;;;;;4.40;1.67;;;;;;;;;;5020953;28;20485;-52
2021/12/02 05:48:03;;;;;;;4.50;1.83;;;;;;;;;;5011816;28;20676;-53
2021/12/02 05:50:29;;;;;;;2.60;1.73;;;;;;;;;;5007957;28;20276;-53
2021/12/02 05:52:55;;;;;;;5.10;2.40;;;;;;;;;;5004208;28;20563;-53
2021/12/02 05:55:22;;;;;;;2.63;2.43;;;;;;;;;;5009108;28;20189;-52
2021/12/02 05:57:48;;;;;;;3.80;2.67;;;;;;;;;;5007005;28;20253;-53
2021/12/02 06:00:15;;;;;;;4.00;2.43;;;;;;;;;;5006997;28;20186;-52
2021/12/02 06:02:42;;;;;;;3.00;2.70;;;;;;;;;;5007051;28;20658;-52
2021/12/02 06:05:08;;;;;;;2.40;1.90;;;;;;;;;;5010167;28;20270;-53
2021/12/02 06:07:37;;;;;;;9.23;2.17;;;;;;;;;;5013951;28;20618;-52
2021/12/02 06:10:03;;;;;;;2.77;2.33;;;;;;;;;;5008143;28;20779;-52
2021/12/02 06:12:29;;;;;;;2.97;2.20;;;;;;;;;;5008932;28;20206;-53
2021/12/02 06:14:56;;;;;;;4.77;2.17;;;;;;;;;;5013367;28;20189;-53
2021/12/02 06:17:22;;;;;;;5.30;2.17;;;;;;;;;;5006099;28;20221;-53
2021/12/02 06:19:48;;;;;;;2.33;1.93;;;;;;;;;;5007764;28;20733;-53
2021/12/02 06:22:20;;;;;;;3.77;2.20;;;;;;;;;;5011080;28;20651;-53
2021/12/02 06:27:32;;;;;;;4.10;2.00;;;;;;;;;;5009323;28;20237;-53
2021/12/02 06:29:58;;;;;;;4.53;2.23;;;;;;;;;;5007032;28;20233;-52
2021/12/02 06:32:25;;;;;;;5.00;2.10;;;;;;;;;;5006321;28;20414;-53
2021/12/02 06:34:51;;;;;;;5.20;2.23;;;;;;;;;;5010748;28;20555;-54
2021/12/02 06:37:17;;;;;;;3.53;1.90;;;;;;;;;;5014559;28;20571;-53
2021/12/02 06:39:43;;;;;;;3.80;2.20;;;;;;;;;;5023129;28;20257;-52
2021/12/02 06:42:14;;;;;;;4.50;2.23;;;;;;;;;;5011298;28;20625;-52
2021/12/02 06:44:40;;;;;;;3.50;2.03;;;;;;;;;;5011635;28;20182;-53
2021/12/02 06:47:07;;;;;;;6.37;2.30;;;;;;;;;;5012324;28;20689;-53
2021/12/02 06:49:38;;;;;;;4.67;2.67;;;;;;;;;;5025343;28;20638;-53
2021/12/02 06:52:09;;;;;;;4.87;2.60;;;;;;;;;;4997409;28;20226;-53
2021/12/02 06:54:36;;;;;;;4.93;2.27;;;;;;;;;;5012591;28;20166;-54
2021/12/02 06:57:03;;;;;;;2.67;2.47;;;;;;;;;;5011898;28;20198;-52
2021/12/02 06:59:32;;;;;;;5.80;2.97;;;;;;;;;;4994251;28;20219;-52
2021/12/02 07:01:59;;;;;;;3.30;2.37;;;;;;;;;;5011751;28;20704;-53
2021/12/02 07:04:25;;;;;;;2.23;2.03;;;;;;;;;;5004337;28;20253;-53
2021/12/02 07:06:52;;;;;;;5.23;2.03;;;;;;;;;;5007537;28;20236;-53
2021/12/02 07:09:18;;;;;;;4.37;2.43;;;;;;;;;;5011143;28;20618;-54
2021/12/02 07:11:44;;;;;;;3.70;2.70;;;;;;;;;;4978282;28;20202;-52
2021/12/02 07:14:16;;;;;;;6.33;3.20;;;;;;;;;;4995754;28;20170;-52
2021/12/02 07:16:43;;;;;;;4.63;2.60;;;;;;;;;;4997696;28;20217;-52
2021/12/02 07:19:10;;;;;;;3.37;2.23;;;;;;;;;;4993399;28;20174;-52
2021/12/02 07:21:38;;;;;;;6.03;2.20;;;;;;;;;;4994160;28;20623;-54
2021/12/02 07:24:05;;;;;;;4.77;2.63;;;;;;;;;;5012311;28;20610;-53
2021/12/02 07:26:40;;;;;;;5.33;2.60;;;;;;;;;;5016794;28;20171;-54
2021/12/02 07:29:06;;;;;;;4.20;2.50;;;;;;;;;;5011099;28;20277;-52
2021/12/02 07:31:34;;;;;;;2.87;1.90;;;;;;;;;;4994941;28;20206;-54
2021/12/02 07:34:02;;;;;;;4.50;2.07;;;;;;;;;;4977183;28;20297;-54
2021/12/02 07:36:29;;;;;;;3.17;1.97;;;;;;;;;;4993518;28;20229;-54
2021/12/02 07:38:56;;;;;;;3.87;2.10;;;;;;;;;;4993588;28;20178;-53
2021/12/02 07:41:22;;;;;;;2.40;1.90;;;;;;;;;;5011055;28;20278;-54
2021/12/02 07:43:48;;;;;;;3.60;1.70;;;;;;;;;;5006872;28;20276;-54
2021/12/02 07:46:14;;;;;;;3.80;1.73;;;;;;;;;;4991861;28;20194;-54
2021/12/02 07:48:41;;;;;;;2.10;1.60;;;;;;;;;;5001025;28;20633;-54
2021/12/02 07:51:09;;;;;;;4.87;1.90;;;;;;;;;;5019365;28;20221;-53
2021/12/02 07:53:36;;;;;;;2.57;1.60;;;;;;;;;;5045459;28;20177;-53
2021/12/02 07:56:03;;;;;;;2.73;1.90;;;;;;;;;;5013527;28;20557;-54
2021/12/02 07:58:30;;;;;;;1.90;1.70;;;;;;;;;;5041842;28;20227;-54
2021/12/02 08:01:00;;;;;;;2.10;1.70;;;;;;;;;;5032341;28;20188;-53
2021/12/02 08:03:29;;;;;;;5.53;1.80;;;;;;;;;;5013558;28;20595;-54
2021/12/02 08:05:55;;;;;;;2.00;1.60;;;;;;;;;;5029412;28;20217;-53
2021/12/02 08:08:21;;;;;;;2.27;1.70;;;;;;;;;;5023452;28;20191;-54
2021/12/02 08:10:48;;;;;;;2.43;1.80;;;;;;;;;;5011293;28;20203;-54
2021/12/02 08:13:14;;;;;;;2.00;1.80;;;;;;;;;;5023095;28;20188;-53
2021/12/02 08:15:41;;;;;;;2.33;1.57;;;;;;;;;;5013092;28;20182;-53
2021/12/02 08:18:08;;;;;;;2.80;1.40;;;;;;;;;;5011905;28;20174;-54
2021/12/02 08:20:35;;;;;;;1.47;1.37;;;;;;;;;;5020665;28;20275;-54
2021/12/02 08:23:01;;;;;;;2.30;1.50;;;;;;;;;;5032093;28;20193;-54
2021/12/02 08:25:29;;;;;;;1.70;1.60;;;;;;;;;;5020267;28;20182;-54
2021/12/02 08:27:56;;;;;;;2.33;1.83;;;;;;;;;;5007001;28;20186;-53
2021/12/02 08:30:26;;;;;;;3.90;1.87;;;;;;;;;;5012329;28;20177;-54
2021/12/02 08:32:52;;;;;;;1.30;1.20;;;;;;;;;;5011681;28;20251;-53
2021/12/02 08:35:19;;;;;;;2.07;1.60;;;;;;;;;;5011966;28;20216;-54
2021/12/02 08:37:47;;;;;;;2.97;1.50;;;;;;;;;;5030326;28;20225;-53
2021/12/02 08:40:15;;;;;;;1.60;1.50;;;;;;;;;;5011572;28;20239;-53
2021/12/02 08:42:42;;;;;;;3.87;1.60;;;;;;;;;;5019180;28;20181;-54
2021/12/02 08:45:08;;;;;;;3.13;1.80;;;;;;;;;;5021157;28;20193;-54
2021/12/02 08:47:42;;;;;;;3.20;1.90;;;;;;;;;;5041942;28;20190;-52
2021/12/02 08:50:09;;;;;;;2.27;1.77;;;;;;;;;;5011829;28;20177;-53
2021/12/02 08:52:35;;;;;;;1.53;1.40;;;;;;;;;;5011897;28;20209;-53
2021/12/02 08:55:01;;;;;;;3.03;2.00;;;;;;;;;;5029475;28;20185;-54
2021/12/02 08:57:27;;;;;;;2.23;1.43;;;;;;;;;;5011619;28;20563;-55
2021/12/02 08:59:54;;;;;;;3.67;1.67;;;;;;;;;;5029539;28;20181;-55
2021/12/02 09:02:21;;;;;;;2.47;1.73;;;;;;;;;;5012122;28;20677;-55
2021/12/02 09:04:47;;;;;;;2.47;1.40;;;;;;;;;;5011322;28;20188;-55
2021/12/02 09:07:15;;;;;;;2.97;1.33;;;;;;;;;;5032624;28;20188;-55
2021/12/02 09:09:41;;;;;;;1.87;1.70;;;;;;;;;;5018461;28;20193;-54
2021/12/02 09:12:09;;;;;;;3.33;1.30;;;;;;;;;;5013831;28;20241;-54
2021/12/02 09:14:36;;;;;;;4.53;1.77;;;;;;;;;;5020453;28;20186;-55
2021/12/02 09:17:02;;;;;;;4.87;1.57;;;;;;;;;;4992793;28;20239;-54
2021/12/02 09:19:29;;;;;;;1.70;1.60;;;;;;;;;;5029071;28;20188;-54
2021/12/02 09:21:55;;;;;;;3.10;1.80;;;;;;;;;;5011672;28;20680;-53
2021/12/02 09:24:21;;;;;;;2.80;1.30;;;;;;;;;;5028562;28;20181;-53
2021/12/02 09:26:48;;;;;;;1.33;1.23;;;;;;;;;;5011114;28;20184;-53
2021/12/02 09:29:16;;;;;;;3.67;1.57;;;;;;;;;;5024824;28;20181;-54
2021/12/02 09:31:43;;;;;;;2.70;2.10;;;;;;;;;;5010198;28;20205;-53
2021/12/02 09:34:09;;;;;;;3.53;1.90;;;;;;;;;;5029339;28;20217;-53
2021/12/02 09:36:35;;;;;;;5.10;1.60;;;;;;;;;;5011324;28;20596;-54
2021/12/02 09:39:02;;;;;;;4.73;2.10;;;;;;;;;;5029656;28;20185;-55
2021/12/02 09:41:28;;;;;;;1.63;1.37;;;;;;;;;;5020072;28;20182;-54
2021/12/02 09:43:54;;;;;;;3.30;1.57;;;;;;;;;;5028520;28;20538;-55
2021/12/02 09:46:21;;;;;;;2.17;1.90;;;;;;;;;;5011701;28;20654;-55
2021/12/02 09:48:47;;;;;;;3.07;1.63;;;;;;;;;;5014969;28;20648;-53
2021/12/02 09:51:22;;;;;;;1.70;1.60;;;;;;;;;;5028473;28;20271;-54
2021/12/02 09:56:18;;;;;;;4.00;2.03;;;;;;;;;;5021698;28;20225;-53
2021/12/02 09:58:45;;;;;;;3.17;2.33;;;;;;;;;;5015567;28;20550;-55
2021/12/02 10:01:14;;;;;;;3.40;2.10;;;;;;;;;;5020909;28;20651;-54
2021/12/02 10:03:43;;;;;;;2.57;2.00;;;;;;;;;;5015462;28;20182;-54
2021/12/02 10:06:10;;;;;;;4.07;2.60;;;;;;;;;;5028619;28;20543;-54
2021/12/02 10:08:53;;;;;;;1.90;1.77;;;;;;;;;;5032308;28;20663;-55
2021/12/02 10:11:33;;;;;;;1.90;1.80;;;;;;;;;;5014835;28;20201;-54
2021/12/02 10:14:15;;;;;;;1.70;1.60;;;;;;;;;;5014883;28;20173;-53
2021/12/02 10:16:45;;;;;;;2.23;2.00;;;;;;;;;;5023655;28;20569;-53
2021/12/02 10:19:14;;;;;;;3.00;2.70;;;;;;;;;;5034242;28;20530;-53
2021/12/02 10:21:50;;;;;;;3.07;2.23;;;;;;;;;;5052593;28;20200;-55
2021/12/02 10:24:17;;;;;;;2.57;2.10;;;;;;;;;;4997513;28;20231;-55
2021/12/02 10:26:49;;;;;;;3.50;2.80;;;;;;;;;;5015295;28;20660;-54
2021/12/02 10:29:20;;;;;;;2.60;1.93;;;;;;;;;;5026059;28;20198;-53
2021/12/02 10:32:04;;;;;;;3.30;2.00;;;;;;;;;;5024493;28;20699;-53
2021/12/02 10:34:30;;;;;;;3.20;2.07;;;;;;;;;;5031474;28;20684;-53
2021/12/02 10:37:08;;;;;;;3.37;2.20;;;;;;;;;;5014923;28;20189;-53
2021/12/02 10:39:34;;;;;;;4.30;2.40;;;;;;;;;;5015008;28;20173;-54
2021/12/02 10:42:04;;;;;;;2.10;1.87;;;;;;;;;;5014016;28;20569;-54
2021/12/02 10:44:34;;;;;;;4.47;2.43;;;;;;;;;;5007090;28;20190;-54
2021/12/02 10:47:07;;;;;;;2.80;2.03;;;;;;;;;;4997466;28;20177;-54
2021/12/02 10:49:39;;;;;;;2.63;1.97;;;;;;;;;;5014545;28;20193;-53
2021/12/02 10:52:06;;;;;;;2.90;1.87;;;;;;;;;;5000158;28;20254;-53
2021/12/02 10:54:34;;;;;;;6.80;2.10;;;;;;;;;;5000491;28;20183;-53
2021/12/02 10:57:07;;;;;;;3.20;1.80;;;;;;;;;;4995518;28;20201;-54
2021/12/02 10:59:35;;;;;;;3.77;1.93;;;;;;;;;;5014165;28;20169;-53
2021/12/02 11:02:07;;;;;;;1.83;1.70;;;;;;;;;;5004064;28;20190;-54
2021/12/02 11:04:42;;;;;;;2.10;1.70;;;;;;;;;;4983760;28;20422;-55
2021/12/02 11:07:11;;;;;;;2.90;1.80;;;;;;;;;;4994117;28;20182;-55
2021/12/02 11:09:39;;;;;;;4.43;2.00;;;;;;;;;;5012063;28;20178;-55
2021/12/02 11:12:08;;;;;;;3.50;1.70;;;;;;;;;;4993584;28;20265;-55
2021/12/02 11:14:35;;;;;;;3.70;1.90;;;;;;;;;;4993350;28;20458;-54
2021/12/02 11:17:08;;;;;;;2.73;1.50;;;;;;;;;;4994403;28;20220;-54
2021/12/02 11:19:35;;;;;;;2.37;1.33;;;;;;;;;;4995190;28;20619;-54
2021/12/02 11:22:06;;;;;;;1.63;1.20;;;;;;;;;;5011749;28;20221;-54
2021/12/02 11:24:33;;;;;;;3.43;1.30;;;;;;;;;;5002466;28;20181;-53
2021/12/02 11:27:09;;;;;;;6.70;1.47;;;;;;;;;;5015973;28;20717;-55
2021/12/02 11:29:56;;;;;;;1.87;1.37;;;;;;;;;;5002805;28;20720;-55
2021/12/02 11:32:42;;;;;;;3.27;1.30;;;;;;;;;;4996817;28;20205;-54
2021/12/02 11:35:12;;;;;;;2.13;1.20;;;;;;;;;;4993594;28;20798;-53
2021/12/02 11:37:39;;;;;;;1.50;1.40;;;;;;;;;;5006399;28;20597;-53
2021/12/02 11:40:11;;;;;;;3.87;1.60;;;;;;;;;;4993112;28;20239;-54
2021/12/02 11:42:38;;;;;;;4.87;1.27;;;;;;;;;;5007632;28;20163;-54
2021/12/02 11:45:05;;;;;;;2.07;1.20;;;;;;;;;;4988480;28;20715;-54
2021/12/02 11:47:32;;;;;;;1.50;1.30;;;;;;;;;;4991076;28;20182;-53
2021/12/02 11:49:59;;;;;;;1.80;1.27;;;;;;;;;;5010453;28;20698;-54
2021/12/02 11:52:28;;;;;;;1.00;1.00;;;;;;;;;;5001456;28;20304;-53
2021/12/02 11:54:58;;;;;;;1.77;1.43;;;;;;;;;;5011591;28;20184;-52
2021/12/02 11:57:24;;;;;;;1.80;1.50;;;;;;;;;;5012052;28;20198;-52
2021/12/02 11:59:50;;;;;;;1.43;1.07;;;;;;;;;;5024910;28;20223;-53
2021/12/02 12:02:17;;;;;;;1.33;1.03;;;;;;;;;;5007393;28;20652;-54
2021/12/02 12:04:59;;;;;;;3.80;1.20;;;;;;;;;;5007745;28;20538;-54
2021/12/02 12:07:38;;;;;;;3.27;1.27;;;;;;;;;;5009881;28;20202;-54
2021/12/02 12:10:12;;;;;;;1.33;1.10;;;;;;;;;;5013903;28;20612;-53
2021/12/02 12:12:42;;;;;;;2.37;1.20;;;;;;;;;;5010887;28;20221;-54
2021/12/02 12:15:29;;;;;;;4.57;1.27;;;;;;;;;;5011340;28;20185;-55
2021/12/02 12:17:55;;;;;;;2.83;1.10;;;;;;;;;;5024693;28;20208;-53
2021/12/02 12:20:22;;;;;;;1.50;1.30;;;;;;;;;;5009681;28;20182;-53
2021/12/02 12:22:48;;;;;;;1.07;0.97;;;;;;;;;;5007822;28;20213;-54
2021/12/02 12:25:29;;;;;;;2.33;1.03;;;;;;;;;;5028201;28;20174;-53
2021/12/02 12:28:00;;;;;;;5.53;1.23;;;;;;;;;;4988486;28;20559;-54
2021/12/02 12:30:36;;;;;;;1.53;1.17;;;;;;;;;;5007925;28;20633;-53
2021/12/02 12:33:09;;;;;;;1.30;0.97;;;;;;;;;;5010475;28;20512;-54
2021/12/02 12:38:03;;;;;;;1.40;1.00;;;;;;;;;;5026944;28;20264;-54
2021/12/02 12:40:31;;;;;;;3.47;1.33;;;;;;;;;;4996997;28;20206;-55
2021/12/02 12:42:57;;;;;;;2.27;1.13;;;;;;;;;;4999671;28;20179;-54
2021/12/02 12:45:31;;;;;;;2.53;1.13;;;;;;;;;;5025182;28;20204;-55
2021/12/02 12:48:02;;;;;;;1.80;1.40;;;;;;;;;;5010261;28;20256;-53
2021/12/02 12:50:28;;;;;;;3.40;1.40;;;;;;;;;;5027844;28;20173;-53
2021/12/02 12:52:55;;;;;;;1.53;1.30;;;;;;;;;;5015330;28;20608;-55
2021/12/02 12:55:23;;;;;;;1.30;1.20;;;;;;;;;;5015345;28;20201;-54
2021/12/02 12:58:07;;;;;;;2.43;1.30;;;;;;;;;;5030258;28;20227;-54
2021/12/02 13:00:42;;;;;;;5.03;1.40;;;;;;;;;;5010691;28;20556;-54
2021/12/02 13:03:16;;;;;;;1.87;1.33;;;;;;;;;;4994328;28;20662;-54
2021/12/02 13:06:00;;;;;;;1.60;1.33;;;;;;;;;;5029574;28;20170;-55
2021/12/02 13:08:31;;;;;;;1.30;1.20;;;;;;;;;;5010810;28;20177;-53
2021/12/02 13:11:02;;;;;;;2.03;1.17;;;;;;;;;;5028589;28;20702;-53
2021/12/02 13:13:34;;;;;;;5.53;1.40;;;;;;;;;;5010798;28;20296;-59
2021/12/02 13:16:14;;;;;;;1.10;1.00;;;;;;;;;;5027586;28;20178;-54
2021/12/02 13:18:41;;;;;;;1.20;1.10;;;;;;;;;;5010593;28;20178;-54
2021/12/02 13:21:32;;;;;;;3.30;1.40;;;;;;;;;;5028605;28;20517;-53
2021/12/02 13:24:00;;;;;;;1.53;1.43;;;;;;;;;;5025394;28;20687;-54
2021/12/02 13:26:27;;;;;;;1.33;1.23;;;;;;;;;;5008233;28;20182;-55
2021/12/02 13:29:07;;;;;;;1.73;1.33;;;;;;;;;;5010160;28;20267;-53
2021/12/02 13:31:34;;;;;;;1.10;1.10;;;;;;;;;;5009162;28;20213;-53
2021/12/02 13:34:23;;;;;;;2.53;1.40;;;;;;;;;;5007758;28;20672;-54
2021/12/02 13:36:51;;;;;;;2.13;1.20;;;;;;;;;;5010214;28;20550;-54
2021/12/02 13:39:31;;;;;;;1.97;1.47;;;;;;;;;;5013935;28;20300;-53
2021/12/02 13:42:01;;;;;;;1.67;1.40;;;;;;;;;;5027801;28;20211;-53
2021/12/02 13:44:33;;;;;;;2.10;1.40;;;;;;;;;;5013469;28;20582;-53
2021/12/02 13:47:00;;;;;;;1.20;1.10;;;;;;;;;;5010319;28;20779;-54
2021/12/02 13:49:30;;;;;;;3.30;1.50;;;;;;;;;;5038839;28;20182;-53
2021/12/02 13:54:47;;;;;;;1.37;1.27;;;;;;;;;;5028713;28;20243;-55
2021/12/02 13:57:29;;;;;;;1.53;1.43;;;;;;;;;;5010987;28;20194;-55
2021/12/02 13:59:55;;;;;;;3.53;1.30;;;;;;;;;;5016271;28;20585;-55
2021/12/02 14:02:23;;;;;;;1.57;1.17;;;;;;;;;;5009125;28;20185;-54
2021/12/02 14:04:50;;;;;;;2.37;1.60;;;;;;;;;;5010095;28;20711;-54
2021/12/02 14:07:18;;;;;;;1.90;1.43;;;;;;;;;;5027988;28;20222;-54
2021/12/02 14:10:11;;;;;;;1.47;1.37;;;;;;;;;;5026896;28;20509;-54
2021/12/02 14:12:40;;;;;;;1.93;1.20;;;;;;;;;;5006660;28;20606;-54
2021/12/02 14:15:09;;;;;;;1.40;1.30;;;;;;;;;;4996068;28;20187;-53
2021/12/02 14:17:47;;;;;;;1.73;1.33;;;;;;;;;;5011803;28;20641;-54
2021/12/02 14:20:14;;;;;;;1.57;1.30;;;;;;;;;;4994897;28;20173;-55
2021/12/02 14:22:42;;;;;;;1.73;1.63;;;;;;;;;;5010643;28;20193;-55
2021/12/02 14:25:09;;;;;;;2.10;1.43;;;;;;;;;;5010204;28;20213;-54
2021/12/02 14:27:36;;;;;;;2.63;1.90;;;;;;;;;;5027967;28;20189;-55
2021/12/02 14:30:08;;;;;;;1.87;1.20;;;;;;;;;;5008830;28;20268;-55
2021/12/02 14:32:35;;;;;;;1.40;1.30;;;;;;;;;;5020244;28;20201;-55
2021/12/02 14:35:20;;;;;;;1.50;1.30;;;;;;;;;;5012058;28;20217;-55
2021/12/02 14:37:48;;;;;;;2.60;1.70;;;;;;;;;;5030783;28;20197;-55
2021/12/02 14:40:33;;;;;;;2.10;1.50;;;;;;;;;;5008882;28;20273;-55
2021/12/02 14:43:16;;;;;;;3.50;1.77;;;;;;;;;;5019664;28;20706;-55
2021/12/02 14:45:42;;;;;;;1.70;1.30;;;;;;;;;;5027647;28;20190;-54
2021/12/02 14:48:28;;;;;;;1.40;1.30;;;;;;;;;;5008851;28;20216;-54
2021/12/02 14:51:15;;;;;;;3.80;1.73;;;;;;;;;;5020140;28;20722;-54
2021/12/02 14:53:43;;;;;;;2.03;1.60;;;;;;;;;;5007558;28;20257;-54
2021/12/02 14:56:19;;;;;;;4.07;2.10;;;;;;;;;;5043877;28;20201;-55
2021/12/02 14:59:04;;;;;;;2.03;1.70;;;;;;;;;;5015356;28;20191;-54
2021/12/02 15:01:31;;;;;;;1.93;1.50;;;;;;;;;;5027773;28;20186;-55
2021/12/02 15:03:57;;;;;;;2.73;1.60;;;;;;;;;;5011049;28;20540;-53
2021/12/02 15:06:37;;;;;;;5.23;1.80;;;;;;;;;;5019661;28;20177;-55
2021/12/02 15:09:23;;;;;;;2.07;1.50;;;;;;;;;;5012805;28;20272;-54
2021/12/02 15:11:49;;;;;;;1.83;1.40;;;;;;;;;;5006884;28;20251;-55
2021/12/02 15:14:32;;;;;;;3.07;1.53;;;;;;;;;;5011871;28;20633;-54
2021/12/02 15:17:02;;;;;;;2.67;1.87;;;;;;;;;;5028750;28;20606;-53
2021/12/02 15:19:35;;;;;;;4.33;1.80;;;;;;;;;;5007671;28;20602;-52